Nuremberg Airport EDDN

Flugplatz Daten

Name: Nuremberg Airport

Ident: EDDN

Lat: 49,49869919

Long: 11,06690025

Platzhöhe: 1046 ft

IataCode: NUE

City: Nuremberg

Metar

2022/08/14 06:20
EDDN 140620Z AUTO 09007KT 050V120 CAVOK 21/15 Q1012 NOSIG

Taf

2022/08/14 06:27
TAF EDDN 140500Z 1406/1506 VRB03KT CAVOK
BECMG 1406/1408 11006KT
BECMG 1500/1502 VRB03KT
BECMG 1504/1506 24005KT
Gewünschte Webcam nicht vorhanden? Dann fügen Sie eine hinzu. Sie wird dann so schnell wie möglich freigeschaltet
Url: Title: